Time;durP1;ratioP1;P1;durP2;ratioP2;P2;SDS_P1;SDS_P2;PMS_P1;PMS_P2;Temp;Humidity;BMP_temperature;BMP_pressure;BME280_temperature;BME280_humidity;BME280_pressure;Samples;Min_cycle;Max_cycle;Signal;HPM_P1;HPM_P2
2021/08/16 00:00:38;;;;;;;0.68;0.68;;;24.60;50.70;;;;;;5136746;28;20046;-36
2021/08/16 00:03:04;;;;;;;0.60;0.60;;;24.60;50.70;;;;;;5136528;28;20043;-36
2021/08/16 00:05:30;;;;;;;0.50;0.50;;;24.60;50.70;;;;;;5136659;28;20057;-36
2021/08/16 00:07:57;;;;;;;0.50;0.50;;;24.60;50.70;;;;;;5136546;28;20404;-36
2021/08/16 00:10:23;;;;;;;0.50;0.50;;;24.50;50.70;;;;;;5136493;28;20471;-36
2021/08/16 00:12:48;;;;;;;0.40;0.40;;;24.60;50.80;;;;;;5137083;28;20089;-36
2021/08/16 00:15:14;;;;;;;0.65;0.65;;;24.50;50.70;;;;;;5136727;28;20047;-36
2021/08/16 00:17:42;;;;;;;0.50;0.50;;;24.50;51.30;;;;;;5136478;28;20138;-36
2021/08/16 00:20:10;;;;;;;0.40;0.40;;;24.50;50.80;;;;;;5136422;28;20043;-36
2021/08/16 00:22:36;;;;;;;0.52;0.52;;;24.50;50.80;;;;;;5136312;28;20043;-36
2021/08/16 00:25:02;;;;;;;0.50;0.50;;;24.50;50.80;;;;;;5136471;28;20043;-36
2021/08/16 00:27:29;;;;;;;0.50;0.50;;;24.50;50.80;;;;;;5135844;28;20043;-37
2021/08/16 00:29:54;;;;;;;0.60;0.60;;;24.50;50.80;;;;;;5135576;28;20058;-36
2021/08/16 00:32:20;;;;;;;0.50;0.50;;;24.50;50.80;;;;;;5136429;28;20055;-36
2021/08/16 00:34:45;;;;;;;0.50;0.50;;;24.50;50.80;;;;;;5135907;28;20115;-36
2021/08/16 00:37:11;;;;;;;0.80;0.80;;;24.50;50.90;;;;;;5136638;28;20356;-36
2021/08/16 00:39:36;;;;;;;0.60;0.60;;;24.50;50.90;;;;;;5135707;28;20146;-37
2021/08/16 00:42:03;;;;;;;0.50;0.50;;;24.50;50.90;;;;;;5133941;28;20047;-36
2021/08/16 00:44:29;;;;;;;0.60;0.60;;;24.50;50.90;;;;;;5136271;28;20051;-37
2021/08/16 00:46:55;;;;;;;0.70;0.70;;;24.50;50.90;;;;;;5117424;28;20211;-36
2021/08/16 00:49:21;;;;;;;0.50;0.50;;;24.50;50.90;;;;;;5136038;28;20058;-36
2021/08/16 00:51:47;;;;;;;0.50;0.50;;;24.50;51.00;;;;;;5136095;28;20051;-37
2021/08/16 00:54:13;;;;;;;0.52;0.52;;;24.50;51.00;;;;;;5135705;27;20047;-36
2021/08/16 00:56:39;;;;;;;0.60;0.60;;;24.50;51.00;;;;;;5117705;28;20130;-36
2021/08/16 00:59:06;;;;;;;0.60;0.60;;;24.40;51.00;;;;;;5135802;28;20054;-36
2021/08/16 01:01:32;;;;;;;0.60;0.60;;;24.50;51.00;;;;;;5136226;28;20360;-37
2021/08/16 01:03:58;;;;;;;0.60;0.60;;;24.50;51.00;;;;;;5136000;28;20138;-35
2021/08/16 01:06:24;;;;;;;0.80;0.80;;;24.50;51.00;;;;;;5135713;28;20054;-35
2021/08/16 01:08:50;;;;;;;0.60;0.60;;;24.40;51.00;;;;;;5135402;28;20055;-37
2021/08/16 01:11:16;;;;;;;0.60;0.60;;;24.40;51.00;;;;;;5135667;28;20055;-36
2021/08/16 01:13:42;;;;;;;0.60;0.60;;;24.40;51.00;;;;;;5135811;28;20074;-36
2021/08/16 01:16:09;;;;;;;1.25;0.52;;;24.40;51.10;;;;;;5135547;28;20120;-36
2021/08/16 01:18:35;;;;;;;0.60;0.60;;;24.40;51.10;;;;;;5135225;28;20054;-36
2021/08/16 01:21:06;;;;;;;0.50;0.50;;;24.40;51.60;;;;;;5135892;28;20113;-36
2021/08/16 01:23:33;;;;;;;0.60;0.60;;;24.40;51.10;;;;;;5135734;28;20097;-36
2021/08/16 01:25:58;;;;;;;0.70;0.70;;;24.40;51.10;;;;;;5135708;28;20051;-36
2021/08/16 01:28:25;;;;;;;0.60;0.60;;;24.40;51.10;;;;;;5135243;28;20047;-36
2021/08/16 01:30:56;;;;;;;0.63;0.63;;;24.40;51.10;;;;;;5135559;28;20055;-36
2021/08/16 01:33:23;;;;;;;0.50;0.50;;;24.40;51.20;;;;;;5135878;28;20066;-37
2021/08/16 01:35:48;;;;;;;0.70;0.70;;;24.40;51.20;;;;;;5135112;28;20070;-35
2021/08/16 01:38:16;;;;;;;0.60;0.60;;;24.40;51.20;;;;;;5135614;28;20047;-36
2021/08/16 01:40:42;;;;;;;0.57;0.57;;;24.40;51.20;;;;;;5135198;28;20059;-36
2021/08/16 01:43:07;;;;;;;0.60;0.60;;;24.40;51.30;;;;;;5135649;28;20058;-35
2021/08/16 01:45:33;;;;;;;0.50;0.50;;;24.30;51.20;;;;;;5115737;28;20048;-35
2021/08/16 01:47:58;;;;;;;0.60;0.60;;;24.30;51.20;;;;;;5134887;28;20054;-35
2021/08/16 01:50:24;;;;;;;0.50;0.50;;;24.40;51.30;;;;;;5135488;28;20054;-35
2021/08/16 01:52:50;;;;;;;0.45;0.45;;;24.30;51.20;;;;;;5135133;28;20062;-35
2021/08/16 01:55:16;;;;;;;0.60;0.60;;;24.30;51.30;;;;;;5116430;28;20074;-36
2021/08/16 01:57:43;;;;;;;0.70;0.70;;;24.30;51.30;;;;;;5135110;28;20047;-35
2021/08/16 02:00:10;;;;;;;0.60;0.60;;;24.30;51.30;;;;;;5134727;28;20039;-35
2021/08/16 02:02:40;;;;;;;0.50;0.50;;;24.30;51.30;;;;;;5134619;28;20103;-36
2021/08/16 02:05:06;;;;;;;0.52;0.52;;;24.30;51.30;;;;;;5134640;27;20491;-35
2021/08/16 02:07:32;;;;;;;0.50;0.50;;;24.30;51.40;;;;;;5133086;28;20047;-36
2021/08/16 02:09:57;;;;;;;0.40;0.40;;;24.20;51.30;;;;;;5134754;28;20062;-36
2021/08/16 02:12:23;;;;;;;0.65;0.65;;;24.30;51.40;;;;;;5134898;28;20479;-36
2021/08/16 02:14:49;;;;;;;0.50;0.50;;;24.30;51.40;;;;;;5134180;28;20402;-36
2021/08/16 02:17:14;;;;;;;0.60;0.60;;;24.30;51.40;;;;;;5134503;28;20043;-36
2021/08/16 02:19:41;;;;;;;0.70;0.70;;;24.20;51.40;;;;;;5134292;28;20051;-35
2021/08/16 02:22:07;;;;;;;0.57;0.57;;;24.20;51.40;;;;;;5134744;28;20051;-36
2021/08/16 02:24:32;;;;;;;0.70;0.60;;;24.20;51.40;;;;;;5134415;28;20091;-35
2021/08/16 02:26:58;;;;;;;0.60;0.60;;;24.20;51.40;;;;;;5134274;28;20051;-35
2021/08/16 02:29:23;;;;;;;0.57;0.57;;;24.20;51.50;;;;;;5114569;28;20059;-36
2021/08/16 02:31:49;;;;;;;0.60;0.60;;;24.20;51.50;;;;;;5134640;28;20054;-35
2021/08/16 02:34:14;;;;;;;0.57;0.57;;;24.20;51.50;;;;;;5134795;28;20058;-35
2021/08/16 02:36:40;;;;;;;0.55;0.55;;;24.20;51.50;;;;;;5134132;28;20047;-37
2021/08/16 02:39:06;;;;;;;0.70;0.70;;;24.20;51.50;;;;;;5134241;28;20477;-35
2021/08/16 02:41:31;;;;;;;0.52;0.52;;;24.20;51.50;;;;;;5134156;28;20059;-36
2021/08/16 02:43:57;;;;;;;0.63;0.63;;;24.20;51.50;;;;;;5134631;28;20051;-36
2021/08/16 02:46:22;;;;;;;0.50;0.50;;;24.20;51.60;;;;;;5134033;28;20051;-36
2021/08/16 02:48:48;;;;;;;0.60;0.60;;;24.20;51.60;;;;;;5134246;28;20376;-35
2021/08/16 02:51:14;;;;;;;0.60;0.60;;;24.20;51.60;;;;;;5133954;28;20550;-36
2021/08/16 02:53:39;;;;;;;0.70;0.70;;;24.20;51.60;;;;;;5134458;28;20062;-36
2021/08/16 02:56:05;;;;;;;0.50;0.50;;;24.20;51.70;;;;;;5133859;28;20177;-36
2021/08/16 02:58:30;;;;;;;0.50;0.50;;;24.10;52.10;;;;;;5133793;28;20494;-37
2021/08/16 03:00:56;;;;;;;0.50;0.50;;;24.10;51.60;;;;;;5134335;28;20146;-36
2021/08/16 03:03:22;;;;;;;0.60;0.60;;;24.10;51.70;;;;;;5113484;28;20051;-36
2021/08/16 03:05:47;;;;;;;0.95;0.85;;;24.10;51.70;;;;;;5133775;28;20118;-35
2021/08/16 03:08:13;;;;;;;0.60;0.60;;;24.10;51.70;;;;;;5133660;28;20179;-35
2021/08/16 03:10:39;;;;;;;0.60;0.60;;;24.10;51.80;;;;;;5115182;28;20070;-36
2021/08/16 03:13:04;;;;;;;0.57;0.57;;;24.10;51.70;;;;;;5133722;28;20051;-37
2021/08/16 03:15:30;;;;;;;0.52;0.52;;;24.10;51.80;;;;;;5133535;28;20455;-36
2021/08/16 03:17:56;;;;;;;0.50;0.50;;;24.10;51.80;;;;;;5133003;27;20074;-37
2021/08/16 03:20:22;;;;;;;0.68;0.68;;;24.10;51.80;;;;;;5133896;28;20051;-37
2021/08/16 03:22:48;;;;;;;0.50;0.50;;;24.10;51.80;;;;;;5133875;28;20047;-36
2021/08/16 03:25:15;;;;;;;0.63;0.63;;;24.10;51.80;;;;;;5133546;28;20096;-36
2021/08/16 03:27:42;;;;;;;0.50;0.50;;;24.10;51.80;;;;;;5133888;28;20051;-36
2021/08/16 03:30:08;;;;;;;0.60;0.60;;;24.10;51.90;;;;;;5133494;28;20051;-37
2021/08/16 03:32:34;;;;;;;0.50;0.50;;;24.10;51.90;;;;;;5132872;28;21003;-36
2021/08/16 03:35:00;;;;;;;0.70;0.70;;;24.10;51.90;;;;;;5133501;28;20055;-36
2021/08/16 03:37:32;;;;;;;0.60;0.60;;;24.10;51.90;;;;;;5133725;28;20051;-36
2021/08/16 03:39:58;;;;;;;0.60;0.60;;;24.10;51.90;;;;;;5133425;28;20409;-35
2021/08/16 03:42:24;;;;;;;0.60;0.60;;;24.00;51.90;;;;;;5133330;28;20538;-36
2021/08/16 03:44:50;;;;;;;0.60;0.60;;;24.00;51.90;;;;;;5133041;28;20055;-36
2021/08/16 03:47:15;;;;;;;0.50;0.50;;;24.00;51.90;;;;;;5133179;28;20054;-36
2021/08/16 03:49:41;;;;;;;0.57;0.57;;;24.00;51.90;;;;;;5133069;28;20410;-36
2021/08/16 03:52:06;;;;;;;0.60;0.60;;;24.00;52.00;;;;;;5133221;28;20402;-36
2021/08/16 03:54:32;;;;;;;0.60;0.60;;;24.00;52.00;;;;;;5131130;28;20505;-36
2021/08/16 03:56:57;;;;;;;0.60;0.60;;;24.00;52.00;;;;;;5132884;28;20452;-36
2021/08/16 03:59:23;;;;;;;0.50;0.50;;;24.00;52.00;;;;;;5133090;28;20055;-36
2021/08/16 04:01:48;;;;;;;0.70;0.70;;;24.00;52.00;;;;;;5133647;28;20047;-36
2021/08/16 04:04:14;;;;;;;0.60;0.60;;;24.00;52.00;;;;;;5133142;28;20093;-36
2021/08/16 04:06:40;;;;;;;0.47;0.47;;;24.00;52.00;;;;;;5132724;28;20091;-36
2021/08/16 04:09:06;;;;;;;0.45;0.45;;;24.00;52.00;;;;;;5132974;28;20402;-36
2021/08/16 04:11:31;;;;;;;0.57;0.57;;;24.00;52.00;;;;;;5132903;28;20058;-36
2021/08/16 04:13:57;;;;;;;0.50;0.50;;;24.00;52.00;;;;;;5133105;28;20047;-37
2021/08/16 04:16:23;;;;;;;0.45;0.45;;;24.00;52.00;;;;;;5132923;28;20047;-37
2021/08/16 04:18:48;;;;;;;0.50;0.50;;;24.00;52.00;;;;;;5132876;28;20039;-37
2021/08/16 04:21:14;;;;;;;0.60;0.60;;;24.00;52.00;;;;;;5132588;28;20063;-37
2021/08/16 04:23:40;;;;;;;0.43;0.43;;;24.00;52.00;;;;;;5132746;28;20051;-36
2021/08/16 04:26:05;;;;;;;0.70;0.70;;;24.00;52.10;;;;;;5132708;28;20419;-36
2021/08/16 04:28:31;;;;;;;0.50;0.50;;;24.00;52.10;;;;;;5114555;27;20055;-36
2021/08/16 04:30:56;;;;;;;0.70;0.70;;;24.00;52.00;;;;;;5136102;28;20051;-37
2021/08/16 04:33:24;;;;;;;0.70;0.70;;;24.00;52.10;;;;;;5136178;28;20499;-36
2021/08/16 04:35:51;;;;;;;0.50;0.50;;;24.00;52.10;;;;;;5136711;28;20120;-36
2021/08/16 04:38:19;;;;;;;0.63;0.63;;;24.00;52.00;;;;;;5136175;28;20502;-36
2021/08/16 04:40:52;;;;;;;0.50;0.50;;;24.00;52.10;;;;;;5136489;28;20494;-36
2021/08/16 04:43:19;;;;;;;0.50;0.50;;;24.00;52.10;;;;;;5136155;28;20059;-37
2021/08/16 04:45:44;;;;;;;0.50;0.50;;;24.00;52.10;;;;;;5136479;28;20055;-37
2021/08/16 04:48:10;;;;;;;0.65;0.60;;;24.00;52.10;;;;;;5136046;28;20103;-36
2021/08/16 04:50:35;;;;;;;0.60;0.60;;;24.00;52.10;;;;;;5135833;28;20051;-37
2021/08/16 04:53:01;;;;;;;0.50;0.50;;;24.00;52.10;;;;;;5135860;28;20062;-36
2021/08/16 04:55:26;;;;;;;0.55;0.55;;;24.00;52.10;;;;;;5136497;28;20078;-36
2021/08/16 04:57:52;;;;;;;0.60;0.60;;;24.00;52.10;;;;;;5135991;28;20483;-36
2021/08/16 05:00:20;;;;;;;0.43;0.43;;;24.00;52.10;;;;;;5135675;28;20051;-38
2021/08/16 05:02:46;;;;;;;0.50;0.50;;;24.00;52.10;;;;;;5135657;28;20490;-36
2021/08/16 05:05:14;;;;;;;0.60;0.60;;;24.00;52.10;;;;;;5135798;28;20061;-36
2021/08/16 05:07:48;;;;;;;0.60;0.60;;;24.00;52.10;;;;;;5135685;28;20051;-37
2021/08/16 05:10:16;;;;;;;0.63;0.63;;;24.00;52.20;;;;;;5135550;28;20051;-37
2021/08/16 05:12:43;;;;;;;0.50;0.50;;;24.00;52.10;;;;;;5135552;28;20058;-37
2021/08/16 05:15:10;;;;;;;0.50;0.50;;;23.90;52.10;;;;;;5135548;28;20058;-37
2021/08/16 05:17:36;;;;;;;0.60;0.60;;;24.00;52.40;;;;;;5136077;28;20081;-37
2021/08/16 05:20:05;;;;;;;0.50;0.50;;;24.00;52.10;;;;;;5135287;28;20043;-37
2021/08/16 05:22:31;;;;;;;0.50;0.50;;;24.00;52.10;;;;;;5135332;28;20465;-36
2021/08/16 05:24:56;;;;;;;0.60;0.60;;;24.00;52.10;;;;;;5135112;28;20054;-36
2021/08/16 05:27:22;;;;;;;0.60;0.60;;;24.00;52.10;;;;;;5135029;28;20058;-37
2021/08/16 05:29:48;;;;;;;0.50;0.50;;;24.00;52.10;;;;;;5135000;28;20058;-36
2021/08/16 05:32:14;;;;;;;0.73;0.73;;;24.00;52.10;;;;;;5135197;28;20075;-37
2021/08/16 05:34:39;;;;;;;0.60;0.60;;;23.90;52.10;;;;;;5117017;28;20051;-36
2021/08/16 05:37:05;;;;;;;0.57;0.57;;;24.00;52.10;;;;;;5135264;28;20394;-36
2021/08/16 05:39:31;;;;;;;0.88;0.60;;;24.00;52.10;;;;;;5116383;28;20086;-37
2021/08/16 05:41:57;;;;;;;0.57;0.57;;;24.00;52.10;;;;;;5135359;27;20049;-36
2021/08/16 05:44:23;;;;;;;0.50;0.50;;;24.00;52.10;;;;;;5134945;28;20062;-37
2021/08/16 05:46:48;;;;;;;0.50;0.50;;;24.00;52.10;;;;;;5116471;28;20490;-36
2021/08/16 05:49:14;;;;;;;0.60;0.60;;;24.00;52.10;;;;;;5134865;28;20139;-36
2021/08/16 05:51:39;;;;;;;0.70;0.70;;;24.00;52.00;;;;;;5134955;28;20058;-37
2021/08/16 05:54:05;;;;;;;0.70;0.70;;;24.00;52.00;;;;;;5135310;28;20108;-37
2021/08/16 05:56:31;;;;;;;0.60;0.60;;;24.00;52.00;;;;;;5135431;28;20429;-37
2021/08/16 05:58:56;;;;;;;0.60;0.60;;;24.00;52.00;;;;;;5135394;28;20100;-37
2021/08/16 06:01:22;;;;;;;0.73;0.73;;;24.00;52.00;;;;;;5134875;28;20047;-37
2021/08/16 06:03:47;;;;;;;0.60;0.60;;;24.00;52.00;;;;;;5134666;28;20046;-36
2021/08/16 06:06:13;;;;;;;0.50;0.50;;;24.00;52.00;;;;;;5135031;28;20054;-37
2021/08/16 06:08:38;;;;;;;0.60;0.60;;;24.00;52.00;;;;;;5134493;28;20108;-37
2021/08/16 06:11:04;;;;;;;0.52;0.52;;;24.00;52.00;;;;;;5134629;28;20047;-37
2021/08/16 06:13:30;;;;;;;0.70;0.70;;;24.00;52.00;;;;;;5134683;28;20043;-37
2021/08/16 06:15:56;;;;;;;0.50;0.50;;;24.00;52.00;;;;;;5134563;28;20093;-37
2021/08/16 06:18:22;;;;;;;0.60;0.60;;;24.10;52.00;;;;;;5134746;28;20066;-37
2021/08/16 06:20:47;;;;;;;0.50;0.50;;;24.00;52.00;;;;;;5134429;28;20051;-37
2021/08/16 06:23:13;;;;;;;0.60;0.60;;;24.00;52.00;;;;;;5134457;28;20047;-37
2021/08/16 06:25:38;;;;;;;0.57;0.57;;;24.10;52.00;;;;;;5134631;28;20125;-36
2021/08/16 06:28:04;;;;;;;0.63;0.60;;;24.00;52.00;;;;;;5134110;28;20050;-37
2021/08/16 06:30:29;;;;;;;0.68;0.68;;;24.00;52.00;;;;;;5116064;28;20054;-37
2021/08/16 06:32:55;;;;;;;0.50;0.50;;;24.00;52.00;;;;;;5134286;28;20051;-37
2021/08/16 06:35:21;;;;;;;0.63;0.63;;;24.00;52.00;;;;;;5134215;28;20053;-37
2021/08/16 06:37:47;;;;;;;0.47;0.47;;;24.10;52.00;;;;;;5115507;28;20051;-37
2021/08/16 06:40:14;;;;;;;0.63;0.63;;;24.10;51.90;;;;;;5134311;28;20112;-37
2021/08/16 06:42:41;;;;;;;0.65;0.65;;;24.10;51.90;;;;;;5134133;28;20084;-37
2021/08/16 06:45:07;;;;;;;0.65;0.65;;;24.10;51.90;;;;;;5134128;28;20062;-37
2021/08/16 06:47:33;;;;;;;0.60;0.60;;;24.10;51.90;;;;;;5133920;28;20050;-35
2021/08/16 06:49:59;;;;;;;0.50;0.50;;;24.10;51.80;;;;;;5133859;28;20073;-36
2021/08/16 06:52:25;;;;;;;0.60;0.60;;;24.10;51.90;;;;;;5132966;27;20055;-37
2021/08/16 06:54:50;;;;;;;0.60;0.60;;;24.10;51.90;;;;;;5133824;28;20082;-37
2021/08/16 06:57:16;;;;;;;0.60;0.60;;;24.10;51.80;;;;;;5134345;28;20356;-38
2021/08/16 06:59:41;;;;;;;0.90;0.50;;;24.20;51.80;;;;;;5134169;28;20115;-37
2021/08/16 07:02:07;;;;;;;0.70;0.70;;;24.10;51.80;;;;;;5133784;28;20078;-36
2021/08/16 07:04:38;;;;;;;0.55;0.55;;;24.10;51.80;;;;;;5134139;28;20105;-37
2021/08/16 07:07:04;;;;;;;;;;;24.10;51.70;;;;;;5134446;28;20050;-36
2021/08/16 07:09:29;;;;;;;0.52;0.52;;;24.10;51.80;;;;;;5133584;28;19915;-36
2021/08/16 07:11:56;;;;;;;0.75;0.75;;;24.10;51.80;;;;;;5134035;28;20466;-37
2021/08/16 07:14:22;;;;;;;0.60;0.60;;;24.10;51.80;;;;;;5133929;28;20047;-36
2021/08/16 07:16:48;;;;;;;0.50;0.50;;;24.10;51.90;;;;;;5134031;28;20074;-36
2021/08/16 07:19:14;;;;;;;0.60;0.60;;;24.10;51.90;;;;;;5133226;28;20054;-36
2021/08/16 07:21:39;;;;;;;0.60;0.60;;;24.10;51.90;;;;;;5133510;28;20055;-36
2021/08/16 07:24:05;;;;;;;0.68;0.68;;;24.10;52.00;;;;;;5133606;28;20142;-36
2021/08/16 07:26:31;;;;;;;0.60;0.60;;;24.10;52.00;;;;;;5133448;28;20100;-36
2021/08/16 07:28:56;;;;;;;0.63;0.60;;;24.00;51.90;;;;;;5133282;28;20399;-37
2021/08/16 07:31:22;;;;;;;0.50;0.50;;;24.10;52.00;;;;;;5133465;28;20047;-37
2021/08/16 07:33:48;;;;;;;0.65;0.65;;;24.00;51.90;;;;;;5133360;28;20075;-36
2021/08/16 07:36:13;;;;;;;0.60;0.60;;;24.00;52.00;;;;;;5133834;28;20055;-36
2021/08/16 07:38:39;;;;;;;0.70;0.65;;;24.00;52.00;;;;;;5114909;28;20552;-36
2021/08/16 07:41:05;;;;;;;0.98;0.60;;;24.00;52.00;;;;;;5133547;28;20043;-36
2021/08/16 07:43:30;;;;;;;0.60;0.60;;;24.00;52.00;;;;;;5133584;28;20051;-38
2021/08/16 07:45:56;;;;;;;0.65;0.65;;;24.00;52.00;;;;;;5133159;28;20126;-36
2021/08/16 07:48:22;;;;;;;0.60;0.60;;;24.10;52.00;;;;;;5133087;28;20116;-36
2021/08/16 07:50:47;;;;;;;0.55;0.55;;;24.10;51.90;;;;;;5133761;28;20050;-37
2021/08/16 07:53:13;;;;;;;0.60;0.60;;;24.10;51.80;;;;;;5133077;28;20051;-37
2021/08/16 07:55:40;;;;;;;0.70;0.55;;;24.10;51.80;;;;;;5133068;28;20388;-36
2021/08/16 07:58:05;;;;;;;0.50;0.50;;;24.20;51.70;;;;;;5133484;28;20162;-37
2021/08/16 08:00:31;;;;;;;0.57;0.57;;;24.30;51.70;;;;;;5133095;28;20104;-36
2021/08/16 08:02:57;;;;;;;0.73;0.70;;;24.30;51.50;;;;;;5133481;28;20050;-37
2021/08/16 08:05:24;;;;;;;0.70;0.70;;;24.30;51.40;;;;;;5136643;27;20039;-37
2021/08/16 08:07:50;;;;;;;0.70;0.70;;;24.30;51.60;;;;;;5136762;28;20050;-37
2021/08/16 08:10:17;;;;;;;0.60;0.60;;;24.30;51.40;;;;;;5136242;28;20594;-37
2021/08/16 08:12:44;;;;;;;0.65;0.65;;;24.30;51.50;;;;;;5118643;28;20051;-36
2021/08/16 08:15:11;;;;;;;0.70;0.70;;;24.30;51.50;;;;;;5136579;28;20559;-36
2021/08/16 08:17:37;;;;;;;0.77;0.70;;;24.20;51.50;;;;;;5136495;28;20050;-37
2021/08/16 08:20:05;;;;;;;0.70;0.70;;;24.20;51.50;;;;;;5136113;28;20055;-37
2021/08/16 08:22:31;;;;;;;0.65;0.65;;;24.20;51.60;;;;;;5136585;28;20047;-37
2021/08/16 08:24:56;;;;;;;0.50;0.50;;;24.20;51.60;;;;;;5136543;28;20096;-36
2021/08/16 08:27:22;;;;;;;0.60;0.60;;;24.20;51.60;;;;;;5117118;28;20091;-36
2021/08/16 08:29:48;;;;;;;0.55;0.55;;;24.20;51.60;;;;;;5136052;28;20062;-36
2021/08/16 08:32:14;;;;;;;0.60;0.60;;;24.30;51.60;;;;;;5136576;28;20055;-36
2021/08/16 08:34:40;;;;;;;0.70;0.70;;;24.30;51.50;;;;;;5136089;28;20051;-36
2021/08/16 08:37:10;;;;;;;0.63;0.63;;;24.40;51.40;;;;;;5136042;28;20107;-37
2021/08/16 08:39:40;;;;;;;0.57;0.57;;;24.50;51.20;;;;;;5136618;28;20050;-36
2021/08/16 08:42:07;;;;;;;0.60;0.60;;;24.50;51.00;;;;;;5136328;28;20062;-36
2021/08/16 08:44:34;;;;;;;0.68;0.68;;;24.60;51.40;;;;;;5136147;28;20101;-36
2021/08/16 08:47:00;;;;;;;0.75;0.70;;;24.60;50.80;;;;;;5135933;28;20059;-36
2021/08/16 08:49:26;;;;;;;1.10;0.90;;;24.60;50.80;;;;;;5136418;28;20043;-35
2021/08/16 08:51:51;;;;;;;0.60;0.60;;;24.50;50.90;;;;;;5136116;28;20050;-37
2021/08/16 08:54:19;;;;;;;0.63;0.63;;;24.50;51.00;;;;;;5136094;28;20104;-36
2021/08/16 08:56:46;;;;;;;0.50;0.50;;;24.50;51.00;;;;;;5136079;28;20051;-36
2021/08/16 08:59:11;;;;;;;0.70;0.70;;;24.50;51.00;;;;;;5135694;28;20058;-36
2021/08/16 09:01:37;;;;;;;0.50;0.50;;;24.50;51.00;;;;;;5136295;28;20055;-37
2021/08/16 09:04:03;;;;;;;0.60;0.60;;;24.50;50.90;;;;;;5136178;28;20047;-38
2021/08/16 09:06:35;;;;;;;0.50;0.50;;;24.60;50.80;;;;;;5135851;28;20055;-36
2021/08/16 09:09:01;;;;;;;0.60;0.60;;;24.60;50.80;;;;;;5117077;28;20047;-36
2021/08/16 09:11:28;;;;;;;0.80;0.80;;;24.60;50.90;;;;;;5135825;28;20057;-37
2021/08/16 09:14:03;;;;;;;0.55;0.55;;;24.50;50.90;;;;;;5135831;28;20080;-36
2021/08/16 09:16:31;;;;;;;0.70;0.70;;;24.50;51.00;;;;;;5134981;27;20082;-35
2021/08/16 09:18:57;;;;;;;0.57;0.57;;;24.40;51.10;;;;;;5135489;28;20468;-36
2021/08/16 09:21:40;;;;;;;0.73;0.73;;;24.40;51.20;;;;;;5135280;28;20096;-37
2021/08/16 09:24:05;;;;;;;0.52;0.50;;;24.40;51.20;;;;;;5135746;28;20095;-37
2021/08/16 09:26:35;;;;;;;0.60;0.60;;;24.40;51.30;;;;;;5135399;28;20043;-37
2021/08/16 09:29:21;;;;;;;0.70;0.70;;;24.30;51.30;;;;;;5135278;28;20536;-37
2021/08/16 09:32:01;;;;;;;0.70;0.70;;;24.40;51.40;;;;;;5135469;28;20407;-38
2021/08/16 09:34:37;;;;;;;0.63;0.63;;;24.30;51.40;;;;;;5135588;28;20108;-37
2021/08/16 09:37:16;;;;;;;0.80;0.80;;;24.30;51.50;;;;;;5135609;28;20075;-37
2021/08/16 09:39:43;;;;;;;0.60;0.60;;;24.30;51.50;;;;;;5134964;28;20047;-37
2021/08/16 09:42:09;;;;;;;0.60;0.60;;;24.30;51.50;;;;;;5135131;28;20074;-37
2021/08/16 09:44:48;;;;;;;0.73;0.63;;;24.30;51.40;;;;;;5134875;28;20499;-37
2021/08/16 09:47:14;;;;;;;0.60;0.60;;;24.30;51.40;;;;;;5134762;28;20546;-38
2021/08/16 09:49:39;;;;;;;0.60;0.60;;;24.30;51.40;;;;;;5134922;28;20126;-37
2021/08/16 09:52:11;;;;;;;0.60;0.60;;;24.30;51.50;;;;;;5135582;28;20055;-37
2021/08/16 09:54:39;;;;;;;0.60;0.60;;;24.30;51.50;;;;;;5134918;28;20455;-37
2021/08/16 09:57:07;;;;;;;0.93;0.65;;;24.30;51.50;;;;;;5134904;28;20086;-38
2021/08/16 09:59:34;;;;;;;0.80;0.80;;;24.30;51.50;;;;;;5116223;28;20047;-37
2021/08/16 10:02:00;;;;;;;0.60;0.60;;;24.30;51.50;;;;;;5135369;28;20101;-37
2021/08/16 10:04:28;;;;;;;0.70;0.70;;;24.30;51.50;;;;;;5134752;28;20054;-37
2021/08/16 10:06:56;;;;;;;0.55;0.55;;;24.20;51.50;;;;;;5134732;28;20475;-37
2021/08/16 10:09:23;;;;;;;0.60;0.60;;;24.30;51.60;;;;;;5134422;28;20051;-37
2021/08/16 10:11:49;;;;;;;0.68;0.68;;;24.20;51.50;;;;;;5135181;28;20058;-37
2021/08/16 10:14:20;;;;;;;0.80;0.80;;;24.20;51.60;;;;;;5134898;28;20043;-37
2021/08/16 10:16:49;;;;;;;1.08;0.85;;;24.20;51.60;;;;;;5134740;28;20603;-37
2021/08/16 10:19:20;;;;;;;1.20;0.60;;;24.20;51.70;;;;;;5134384;28;20066;-37
2021/08/16 10:21:47;;;;;;;;;;;24.20;51.80;;;;;;5135163;28;20096;-38
2021/08/16 10:24:25;;;;;;;0.68;0.68;;;24.20;51.70;;;;;;5116304;28;20311;-37
2021/08/16 10:27:09;;;;;;;0.60;0.60;;;24.20;51.80;;;;;;5133761;27;20054;-37
2021/08/16 10:29:38;;;;;;;0.60;0.60;;;24.20;51.80;;;;;;5134620;28;20070;-38
2021/08/16 10:32:09;;;;;;;0.77;0.77;;;24.20;51.70;;;;;;5134719;28;20066;-37
2021/08/16 10:34:38;;;;;;;0.60;0.60;;;24.20;51.70;;;;;;5134331;28;20509;-37
2021/08/16 10:37:09;;;;;;;0.70;0.70;;;24.20;51.70;;;;;;5134087;28;20051;-38
2021/08/16 10:39:44;;;;;;;0.70;0.70;;;24.20;51.70;;;;;;5134431;28;20048;-37
2021/08/16 10:42:12;;;;;;;0.60;0.60;;;24.20;51.60;;;;;;5134249;28;20133;-37
2021/08/16 10:44:40;;;;;;;0.80;0.80;;;24.20;51.70;;;;;;5134167;28;20055;-37
2021/08/16 10:47:06;;;;;;;0.50;0.50;;;24.20;51.70;;;;;;5133986;28;20127;-37
2021/08/16 10:49:33;;;;;;;0.70;0.70;;;24.20;51.70;;;;;;5134096;28;20483;-37
2021/08/16 10:51:59;;;;;;;0.77;0.77;;;24.20;52.30;;;;;;5134531;28;20096;-37
2021/08/16 10:54:26;;;;;;;0.80;0.80;;;24.20;51.80;;;;;;5134245;28;20048;-37
2021/08/16 10:56:54;;;;;;;0.80;0.77;;;24.10;51.80;;;;;;5133819;28;20047;-36
2021/08/16 10:59:21;;;;;;;0.70;0.70;;;24.10;51.70;;;;;;5134048;28;20050;-37
2021/08/16 11:01:47;;;;;;;0.60;0.60;;;24.20;51.70;;;;;;5134360;28;20050;-37
2021/08/16 11:04:16;;;;;;;0.52;0.52;;;24.30;51.70;;;;;;5133807;28;20126;-37
2021/08/16 11:07:04;;;;;;;0.77;0.77;;;24.20;51.50;;;;;;5133770;28;20047;-37
2021/08/16 11:09:33;;;;;;;0.60;0.60;;;24.30;51.60;;;;;;5113245;28;20094;-37
2021/08/16 11:12:05;;;;;;;0.60;0.50;;;24.20;51.60;;;;;;5134094;28;20066;-37
2021/08/16 11:14:33;;;;;;;0.80;0.80;;;24.20;51.80;;;;;;5134329;28;20051;-37
2021/08/16 11:16:59;;;;;;;0.73;0.73;;;24.20;51.90;;;;;;5134115;28;20083;-37
2021/08/16 11:19:26;;;;;;;0.80;0.80;;;24.10;51.90;;;;;;5133354;28;20467;-37
2021/08/16 11:45:26;;;;;;;0.85;0.82;;;23.90;52.20;;;26.84;37.62;100208.03;5172290;27;20217;-34
2021/08/16 11:47:52;;;;;;;0.70;0.70;;;24.10;52.20;;;27.22;37.01;100217.66;5150751;27;20429;-35
2021/08/16 11:50:21;;;;;;;1.00;0.80;;;24.10;52.10;;;27.43;36.53;100213.88;5151222;27;20051;-35
2021/08/16 11:52:51;;;;;;;0.80;0.77;;;24.10;52.10;;;27.58;36.00;100212.31;5150341;27;20051;-34
2021/08/16 11:55:28;;;;;;;0.80;0.80;;;24.10;52.10;;;27.68;35.88;100215.81;5151046;27;20054;-35
2021/08/16 11:57:57;;;;;;;0.73;0.73;;;24.10;52.10;;;27.79;35.80;100221.94;5150761;27;20051;-34
2021/08/16 12:00:25;;;;;;;1.20;0.82;;;24.20;52.10;;;27.83;35.58;100216.09;5132005;27;20057;-35
2021/08/16 12:02:56;;;;;;;0.80;0.73;;;24.10;52.10;;;27.87;35.72;100217.44;5150343;27;20069;-35
2021/08/16 12:05:23;;;;;;;;;;;24.20;52.20;;;28.01;35.20;100215.22;5151000;27;20051;-35
2021/08/16 12:07:49;;;;;;;1.27;1.10;;;24.20;52.20;;;28.01;35.47;100225.97;5150513;27;19922;-35
2021/08/16 12:10:17;;;;;;;1.05;0.80;;;24.10;52.30;;;27.94;35.71;100220.38;5150402;27;20373;-35
2021/08/16 12:12:44;;;;;;;0.63;0.63;;;24.20;52.40;;;27.96;35.63;100222.91;5150778;27;20383;-35
2021/08/16 12:15:17;;;;;;;1.95;0.90;;;24.10;52.30;;;27.95;35.69;100223.91;5150392;27;20089;-35
2021/08/16 12:17:44;;;;;;;1.00;0.90;;;24.10;52.30;;;27.96;35.42;100233.66;5150398;27;20502;-35
2021/08/16 12:20:14;;;;;;;0.85;0.85;;;24.20;52.40;;;27.99;35.49;100239.56;5150245;27;20466;-35
2021/08/16 12:23:06;;;;;;;0.85;0.85;;;24.20;52.30;;;27.97;35.43;100244.25;5150407;27;20446;-34
2021/08/16 12:25:32;;;;;;;1.48;0.80;;;24.10;52.30;;;28.01;35.65;100255.53;5146394;27;20058;-34
2021/08/16 12:28:02;;;;;;;1.00;0.80;;;24.10;52.30;;;27.93;35.63;100256.31;5149768;27;20047;-35
2021/08/16 12:30:35;;;;;;;1.10;1.00;;;24.10;52.40;;;27.95;35.54;100258.84;5150324;27;20049;-35
2021/08/16 12:33:07;;;;;;;0.73;0.73;;;24.10;52.40;;;27.95;35.57;100261.53;5150115;27;20133;-35
2021/08/16 12:35:33;;;;;;;1.45;0.80;;;24.10;52.30;;;27.98;35.30;100269.28;5150105;27;20453;-35
2021/08/16 12:38:01;;;;;;;1.00;0.95;;;24.10;52.30;;;27.97;35.37;100265.75;5149728;27;20070;-35
2021/08/16 12:40:26;;;;;;;0.90;0.90;;;24.10;52.30;;;27.96;35.75;100260.53;5149978;27;20051;-35
2021/08/16 12:42:58;;;;;;;1.58;0.90;;;24.10;52.40;;;27.96;35.43;100272.13;5150135;27;20088;-35
2021/08/16 12:45:25;;;;;;;1.20;0.95;;;24.10;52.40;;;27.95;35.66;100262.41;5122751;28;20396;-35
2021/08/16 12:48:03;;;;;;;1.52;0.90;;;24.10;52.40;;;27.95;35.42;100264.22;5135809;28;20440;-35
2021/08/16 12:50:31;;;;;;;1.35;1.00;;;24.10;52.40;;;27.96;35.32;100268.59;5135943;28;20055;-36
2021/08/16 12:52:58;;;;;;;1.55;0.90;;;24.10;52.40;;;27.95;35.43;100269.59;5135965;28;20074;-35